sensor_id;sensor_type;location;lat;lon;timestamp;temperature;humidity
59146;DHT22;44928;53.074;6.646;2022-12-07T00:00:55;4.40;99.90
59146;DHT22;44928;53.074;6.646;2022-12-07T00:03:21;4.40;99.90
59146;DHT22;44928;53.074;6.646;2022-12-07T00:05:47;4.50;99.90
59146;DHT22;44928;53.074;6.646;2022-12-07T00:08:12;4.50;99.90
59146;DHT22;44928;53.074;6.646;2022-12-07T00:10:38;4.50;99.90
59146;DHT22;44928;53.074;6.646;2022-12-07T00:13:04;4.50;99.90
59146;DHT22;44928;53.074;6.646;2022-12-07T00:15:30;4.50;99.90
59146;DHT22;44928;53.074;6.646;2022-12-07T00:17:55;4.50;99.90
59146;DHT22;44928;53.074;6.646;2022-12-07T00:20:21;4.50;99.90
59146;DHT22;44928;53.074;6.646;2022-12-07T00:22:47;4.40;99.90
59146;DHT22;44928;53.074;6.646;2022-12-07T00:25:13;4.40;99.90
59146;DHT22;44928;53.074;6.646;2022-12-07T00:27:38;4.40;99.90
59146;DHT22;44928;53.074;6.646;2022-12-07T00:30:05;4.50;99.90
59146;DHT22;44928;53.074;6.646;2022-12-07T00:32:30;4.40;99.90
59146;DHT22;44928;53.074;6.646;2022-12-07T00:34:56;4.40;99.90
59146;DHT22;44928;53.074;6.646;2022-12-07T00:37:22;4.30;99.90
59146;DHT22;44928;53.074;6.646;2022-12-07T00:39:48;4.40;99.90
59146;DHT22;44928;53.074;6.646;2022-12-07T00:42:13;4.30;99.90
59146;DHT22;44928;53.074;6.646;2022-12-07T00:44:39;4.30;99.90
59146;DHT22;44928;53.074;6.646;2022-12-07T00:47:05;4.20;99.90
59146;DHT22;44928;53.074;6.646;2022-12-07T00:49:31;4.20;99.90
59146;DHT22;44928;53.074;6.646;2022-12-07T00:51:56;4.20;99.90
59146;DHT22;44928;53.074;6.646;2022-12-07T00:54:22;4.10;99.90
59146;DHT22;44928;53.074;6.646;2022-12-07T00:56:48;4.10;99.90
59146;DHT22;44928;53.074;6.646;2022-12-07T00:59:14;4.10;99.90
59146;DHT22;44928;53.074;6.646;2022-12-07T01:01:40;4.10;99.90
59146;DHT22;44928;53.074;6.646;2022-12-07T01:04:06;4.10;99.90
59146;DHT22;44928;53.074;6.646;2022-12-07T01:06:32;4.10;99.90
59146;DHT22;44928;53.074;6.646;2022-12-07T01:08:58;4.10;99.90
59146;DHT22;44928;53.074;6.646;2022-12-07T01:11:28;4.10;99.90
59146;DHT22;44928;53.074;6.646;2022-12-07T01:13:55;4.20;99.90
59146;DHT22;44928;53.074;6.646;2022-12-07T01:16:23;4.20;99.90
59146;DHT22;44928;53.074;6.646;2022-12-07T01:18:50;4.30;99.90
59146;DHT22;44928;53.074;6.646;2022-12-07T01:21:24;4.30;99.90
59146;DHT22;44928;53.074;6.646;2022-12-07T01:23:50;4.30;99.90
59146;DHT22;44928;53.074;6.646;2022-12-07T01:26:19;4.40;99.90
59146;DHT22;44928;53.074;6.646;2022-12-07T01:28:46;4.30;99.90
59146;DHT22;44928;53.074;6.646;2022-12-07T01:31:14;4.40;99.90
59146;DHT22;44928;53.074;6.646;2022-12-07T01:33:41;4.40;99.90
59146;DHT22;44928;53.074;6.646;2022-12-07T01:36:30;4.40;99.90
59146;DHT22;44928;53.074;6.646;2022-12-07T01:39:02;4.40;99.90
59146;DHT22;44928;53.074;6.646;2022-12-07T01:41:31;4.40;99.90
59146;DHT22;44928;53.074;6.646;2022-12-07T01:49:38;4.30;99.90
59146;DHT22;44928;53.074;6.646;2022-12-07T01:52:10;4.30;99.90
59146;DHT22;44928;53.074;6.646;2022-12-07T01:54:38;4.30;99.90
59146;DHT22;44928;53.074;6.646;2022-12-07T01:57:06;4.30;99.90
59146;DHT22;44928;53.074;6.646;2022-12-07T01:59:33;4.30;99.90
59146;DHT22;44928;53.074;6.646;2022-12-07T02:02:02;4.40;99.90
59146;DHT22;44928;53.074;6.646;2022-12-07T02:04:30;4.40;99.90
59146;DHT22;44928;53.074;6.646;2022-12-07T02:06:56;4.40;99.90
59146;DHT22;44928;53.074;6.646;2022-12-07T02:09:23;4.40;99.90
59146;DHT22;44928;53.074;6.646;2022-12-07T02:11:49;4.40;99.90
59146;DHT22;44928;53.074;6.646;2022-12-07T02:14:16;4.40;99.90
59146;DHT22;44928;53.074;6.646;2022-12-07T02:16:58;4.40;99.90
59146;DHT22;44928;53.074;6.646;2022-12-07T02:30:07;4.30;99.90
59146;DHT22;44928;53.074;6.646;2022-12-07T02:33:03;4.30;99.90
59146;DHT22;44928;53.074;6.646;2022-12-07T02:38:04;4.30;99.90
59146;DHT22;44928;53.074;6.646;2022-12-07T02:40:35;4.30;99.90
59146;DHT22;44928;53.074;6.646;2022-12-07T02:43:17;4.30;99.90
59146;DHT22;44928;53.074;6.646;2022-12-07T02:45:46;4.30;99.90
59146;DHT22;44928;53.074;6.646;2022-12-07T02:48:16;4.40;99.90
59146;DHT22;44928;53.074;6.646;2022-12-07T02:50:49;4.30;99.90
59146;DHT22;44928;53.074;6.646;2022-12-07T02:55:59;4.40;99.90
59146;DHT22;44928;53.074;6.646;2022-12-07T02:58:31;4.60;99.90
59146;DHT22;44928;53.074;6.646;2022-12-07T03:01:04;4.70;99.90
59146;DHT22;44928;53.074;6.646;2022-12-07T03:03:35;4.80;99.90
59146;DHT22;44928;53.074;6.646;2022-12-07T03:08:39;4.80;99.90
59146;DHT22;44928;53.074;6.646;2022-12-07T03:11:19;4.80;99.90
59146;DHT22;44928;53.074;6.646;2022-12-07T03:13:58;4.70;99.90
59146;DHT22;44928;53.074;6.646;2022-12-07T03:16:39;4.70;99.90
59146;DHT22;44928;53.074;6.646;2022-12-07T03:19:13;4.80;99.90
59146;DHT22;44928;53.074;6.646;2022-12-07T03:21:46;4.80;99.90
59146;DHT22;44928;53.074;6.646;2022-12-07T03:24:16;4.80;99.90
59146;DHT22;44928;53.074;6.646;2022-12-07T03:26:47;4.70;99.90
59146;DHT22;44928;53.074;6.646;2022-12-07T03:29:22;4.80;99.90
59146;DHT22;44928;53.074;6.646;2022-12-07T03:31:58;4.80;99.90
59146;DHT22;44928;53.074;6.646;2022-12-07T03:34:34;4.70;99.90
59146;DHT22;44928;53.074;6.646;2022-12-07T03:37:15;4.70;99.90
59146;DHT22;44928;53.074;6.646;2022-12-07T03:39:54;4.70;99.90
59146;DHT22;44928;53.074;6.646;2022-12-07T03:42:23;4.80;99.90
59146;DHT22;44928;53.074;6.646;2022-12-07T03:44:49;4.80;99.90
59146;DHT22;44928;53.074;6.646;2022-12-07T03:48:07;4.70;99.90
59146;DHT22;44928;53.074;6.646;2022-12-07T03:50:46;4.70;99.90
59146;DHT22;44928;53.074;6.646;2022-12-07T03:53:19;4.60;99.90
59146;DHT22;44928;53.074;6.646;2022-12-07T03:55:48;4.60;99.90
59146;DHT22;44928;53.074;6.646;2022-12-07T03:58:17;4.60;99.90
59146;DHT22;44928;53.074;6.646;2022-12-07T04:00:46;4.50;99.90
59146;DHT22;44928;53.074;6.646;2022-12-07T04:03:12;4.50;99.90
59146;DHT22;44928;53.074;6.646;2022-12-07T04:05:38;4.60;99.90
59146;DHT22;44928;53.074;6.646;2022-12-07T04:08:04;4.60;99.90
59146;DHT22;44928;53.074;6.646;2022-12-07T04:10:30;4.60;99.90
59146;DHT22;44928;53.074;6.646;2022-12-07T04:12:56;4.60;99.90
59146;DHT22;44928;53.074;6.646;2022-12-07T04:15:22;4.60;99.90
59146;DHT22;44928;53.074;6.646;2022-12-07T04:17:48;4.60;99.90
59146;DHT22;44928;53.074;6.646;2022-12-07T04:20:14;4.50;99.90
59146;DHT22;44928;53.074;6.646;2022-12-07T04:22:39;4.50;99.90
59146;DHT22;44928;53.074;6.646;2022-12-07T04:25:06;4.50;99.90
59146;DHT22;44928;53.074;6.646;2022-12-07T04:27:32;4.50;99.90
59146;DHT22;44928;53.074;6.646;2022-12-07T04:29:57;4.40;99.90
59146;DHT22;44928;53.074;6.646;2022-12-07T04:32:24;4.40;99.90
59146;DHT22;44928;53.074;6.646;2022-12-07T04:34:49;4.40;99.90
59146;DHT22;44928;53.074;6.646;2022-12-07T04:37:16;4.40;99.90
59146;DHT22;44928;53.074;6.646;2022-12-07T04:39:43;4.30;99.90
59146;DHT22;44928;53.074;6.646;2022-12-07T04:42:10;4.30;99.90
59146;DHT22;44928;53.074;6.646;2022-12-07T04:44:36;4.20;99.90
59146;DHT22;44928;53.074;6.646;2022-12-07T04:47:02;4.20;99.90
59146;DHT22;44928;53.074;6.646;2022-12-07T04:49:28;4.20;99.90
59146;DHT22;44928;53.074;6.646;2022-12-07T04:51:54;4.10;99.90
59146;DHT22;44928;53.074;6.646;2022-12-07T04:54:20;4.10;99.90
59146;DHT22;44928;53.074;6.646;2022-12-07T04:56:46;4.10;99.90
59146;DHT22;44928;53.074;6.646;2022-12-07T04:59:12;4.10;99.90
59146;DHT22;44928;53.074;6.646;2022-12-07T05:01:38;4.00;99.90
59146;DHT22;44928;53.074;6.646;2022-12-07T05:04:05;4.00;99.90
59146;DHT22;44928;53.074;6.646;2022-12-07T05:06:31;4.00;99.90
59146;DHT22;44928;53.074;6.646;2022-12-07T05:08:56;4.00;99.90
59146;DHT22;44928;53.074;6.646;2022-12-07T05:11:22;4.10;99.90
59146;DHT22;44928;53.074;6.646;2022-12-07T05:14:14;4.20;99.90
59146;DHT22;44928;53.074;6.646;2022-12-07T05:16:42;4.20;99.90
59146;DHT22;44928;53.074;6.646;2022-12-07T05:19:09;4.20;99.90
59146;DHT22;44928;53.074;6.646;2022-12-07T05:21:35;4.20;99.90
59146;DHT22;44928;53.074;6.646;2022-12-07T05:24:01;4.10;99.90
59146;DHT22;44928;53.074;6.646;2022-12-07T05:26:27;4.10;99.90
59146;DHT22;44928;53.074;6.646;2022-12-07T05:28:54;4.10;99.90
59146;DHT22;44928;53.074;6.646;2022-12-07T05:31:20;4.10;99.90
59146;DHT22;44928;53.074;6.646;2022-12-07T05:33:46;4.00;99.90
59146;DHT22;44928;53.074;6.646;2022-12-07T05:36:12;4.00;99.90
59146;DHT22;44928;53.074;6.646;2022-12-07T05:38:38;4.00;99.90
59146;DHT22;44928;53.074;6.646;2022-12-07T05:41:05;3.90;99.90
59146;DHT22;44928;53.074;6.646;2022-12-07T05:43:33;3.90;99.90
59146;DHT22;44928;53.074;6.646;2022-12-07T05:45:59;3.90;99.90
59146;DHT22;44928;53.074;6.646;2022-12-07T05:48:25;3.90;99.90
59146;DHT22;44928;53.074;6.646;2022-12-07T05:50:52;3.90;99.90
59146;DHT22;44928;53.074;6.646;2022-12-07T05:53:18;3.80;99.90
59146;DHT22;44928;53.074;6.646;2022-12-07T05:55:44;3.80;99.90
59146;DHT22;44928;53.074;6.646;2022-12-07T05:58:10;3.80;99.90
59146;DHT22;44928;53.074;6.646;2022-12-07T06:00:55;3.80;99.90
59146;DHT22;44928;53.074;6.646;2022-12-07T06:03:21;3.70;99.90
59146;DHT22;44928;53.074;6.646;2022-12-07T06:05:47;3.70;99.90
59146;DHT22;44928;53.074;6.646;2022-12-07T06:08:13;3.70;99.90
59146;DHT22;44928;53.074;6.646;2022-12-07T06:10:40;3.60;99.90
59146;DHT22;44928;53.074;6.646;2022-12-07T06:13:08;3.60;99.90
59146;DHT22;44928;53.074;6.646;2022-12-07T06:15:36;3.50;99.90
59146;DHT22;44928;53.074;6.646;2022-12-07T06:18:02;3.50;99.90
59146;DHT22;44928;53.074;6.646;2022-12-07T06:20:27;3.50;99.90
59146;DHT22;44928;53.074;6.646;2022-12-07T06:22:53;3.50;99.90
59146;DHT22;44928;53.074;6.646;2022-12-07T06:25:19;3.40;99.90
59146;DHT22;44928;53.074;6.646;2022-12-07T06:27:45;3.40;99.90
59146;DHT22;44928;53.074;6.646;2022-12-07T06:30:11;3.40;99.90
59146;DHT22;44928;53.074;6.646;2022-12-07T06:32:37;3.40;99.90
59146;DHT22;44928;53.074;6.646;2022-12-07T06:35:03;3.50;99.90
59146;DHT22;44928;53.074;6.646;2022-12-07T06:37:29;3.50;99.90
59146;DHT22;44928;53.074;6.646;2022-12-07T06:39:55;3.60;99.90
59146;DHT22;44928;53.074;6.646;2022-12-07T06:42:21;3.70;99.90
59146;DHT22;44928;53.074;6.646;2022-12-07T06:44:47;3.70;99.90
59146;DHT22;44928;53.074;6.646;2022-12-07T06:47:13;3.70;99.90
59146;DHT22;44928;53.074;6.646;2022-12-07T06:49:39;3.80;99.90
59146;DHT22;44928;53.074;6.646;2022-12-07T06:52:04;3.80;99.90
59146;DHT22;44928;53.074;6.646;2022-12-07T06:54:31;3.80;99.90
59146;DHT22;44928;53.074;6.646;2022-12-07T06:56:57;3.80;99.90
59146;DHT22;44928;53.074;6.646;2022-12-07T06:59:22;3.80;99.90
59146;DHT22;44928;53.074;6.646;2022-12-07T07:01:48;3.80;99.90
59146;DHT22;44928;53.074;6.646;2022-12-07T07:04:14;3.80;99.90
59146;DHT22;44928;53.074;6.646;2022-12-07T07:06:40;3.70;99.90
59146;DHT22;44928;53.074;6.646;2022-12-07T07:09:06;3.70;99.90
59146;DHT22;44928;53.074;6.646;2022-12-07T07:11:31;3.70;99.90
59146;DHT22;44928;53.074;6.646;2022-12-07T07:13:57;3.60;99.90
59146;DHT22;44928;53.074;6.646;2022-12-07T07:16:28;3.60;99.90
59146;DHT22;44928;53.074;6.646;2022-12-07T07:18:56;3.60;99.90
59146;DHT22;44928;53.074;6.646;2022-12-07T07:21:22;3.50;99.90
59146;DHT22;44928;53.074;6.646;2022-12-07T07:23:48;3.50;99.90
59146;DHT22;44928;53.074;6.646;2022-12-07T07:26:14;3.50;99.90
59146;DHT22;44928;53.074;6.646;2022-12-07T07:28:40;3.50;99.90
59146;DHT22;44928;53.074;6.646;2022-12-07T07:31:05;3.60;99.90
59146;DHT22;44928;53.074;6.646;2022-12-07T07:33:31;3.60;99.90
59146;DHT22;44928;53.074;6.646;2022-12-07T07:35:57;3.70;99.90
59146;DHT22;44928;53.074;6.646;2022-12-07T07:38:23;3.70;99.90
59146;DHT22;44928;53.074;6.646;2022-12-07T07:40:48;3.70;99.90
59146;DHT22;44928;53.074;6.646;2022-12-07T07:43:14;3.70;99.90
59146;DHT22;44928;53.074;6.646;2022-12-07T07:45:40;3.70;99.90
59146;DHT22;44928;53.074;6.646;2022-12-07T07:48:06;3.70;99.90
59146;DHT22;44928;53.074;6.646;2022-12-07T07:50:32;3.70;99.90
59146;DHT22;44928;53.074;6.646;2022-12-07T07:52:58;3.70;99.90
59146;DHT22;44928;53.074;6.646;2022-12-07T07:55:23;3.70;99.90
59146;DHT22;44928;53.074;6.646;2022-12-07T07:57:49;3.70;99.90
59146;DHT22;44928;53.074;6.646;2022-12-07T08:00:16;3.70;99.90
59146;DHT22;44928;53.074;6.646;2022-12-07T08:02:42;3.60;99.90
59146;DHT22;44928;53.074;6.646;2022-12-07T08:05:10;3.60;99.90
59146;DHT22;44928;53.074;6.646;2022-12-07T08:07:35;3.50;99.90
59146;DHT22;44928;53.074;6.646;2022-12-07T08:10:01;3.50;99.90
59146;DHT22;44928;53.074;6.646;2022-12-07T08:12:27;3.50;99.90
59146;DHT22;44928;53.074;6.646;2022-12-07T08:14:53;3.40;99.90
59146;DHT22;44928;53.074;6.646;2022-12-07T08:17:18;3.30;99.90
59146;DHT22;44928;53.074;6.646;2022-12-07T08:19:44;3.30;99.90
59146;DHT22;44928;53.074;6.646;2022-12-07T08:22:10;3.30;99.90
59146;DHT22;44928;53.074;6.646;2022-12-07T08:24:36;3.20;99.90
59146;DHT22;44928;53.074;6.646;2022-12-07T08:27:02;3.20;99.90
59146;DHT22;44928;53.074;6.646;2022-12-07T08:29:29;3.20;99.90
59146;DHT22;44928;53.074;6.646;2022-12-07T08:31:54;3.20;99.90
59146;DHT22;44928;53.074;6.646;2022-12-07T08:34:20;3.20;99.90
59146;DHT22;44928;53.074;6.646;2022-12-07T08:36:46;3.20;99.90
59146;DHT22;44928;53.074;6.646;2022-12-07T08:39:12;3.20;99.90
59146;DHT22;44928;53.074;6.646;2022-12-07T08:41:38;3.20;99.90
59146;DHT22;44928;53.074;6.646;2022-12-07T08:44:04;3.20;99.90
59146;DHT22;44928;53.074;6.646;2022-12-07T08:46:39;3.20;99.90
59146;DHT22;44928;53.074;6.646;2022-12-07T08:49:28;3.20;99.90
59146;DHT22;44928;53.074;6.646;2022-12-07T08:51:56;3.30;99.90
59146;DHT22;44928;53.074;6.646;2022-12-07T08:54:22;3.30;99.90
59146;DHT22;44928;53.074;6.646;2022-12-07T08:56:49;3.30;99.90
59146;DHT22;44928;53.074;6.646;2022-12-07T08:59:18;3.30;99.90
59146;DHT22;44928;53.074;6.646;2022-12-07T09:01:44;3.40;99.90
59146;DHT22;44928;53.074;6.646;2022-12-07T09:04:10;3.50;99.90
59146;DHT22;44928;53.074;6.646;2022-12-07T09:06:36;3.70;99.90
59146;DHT22;44928;53.074;6.646;2022-12-07T09:09:03;3.70;99.90
59146;DHT22;44928;53.074;6.646;2022-12-07T09:11:29;3.80;99.90
59146;DHT22;44928;53.074;6.646;2022-12-07T09:13:55;3.90;99.90
59146;DHT22;44928;53.074;6.646;2022-12-07T09:16:21;3.90;99.90
59146;DHT22;44928;53.074;6.646;2022-12-07T09:18:47;3.90;99.90
59146;DHT22;44928;53.074;6.646;2022-12-07T09:21:13;3.90;99.90
59146;DHT22;44928;53.074;6.646;2022-12-07T09:23:39;3.90;99.90
59146;DHT22;44928;53.074;6.646;2022-12-07T09:26:06;4.00;99.90
59146;DHT22;44928;53.074;6.646;2022-12-07T09:28:32;4.00;99.90
59146;DHT22;44928;53.074;6.646;2022-12-07T09:30:58;4.00;99.90
59146;DHT22;44928;53.074;6.646;2022-12-07T09:33:23;4.10;99.90
59146;DHT22;44928;53.074;6.646;2022-12-07T09:35:51;4.10;99.90
59146;DHT22;44928;53.074;6.646;2022-12-07T09:38:18;4.20;99.90
59146;DHT22;44928;53.074;6.646;2022-12-07T09:40:44;4.30;99.90
59146;DHT22;44928;53.074;6.646;2022-12-07T09:43:22;4.30;99.90
59146;DHT22;44928;53.074;6.646;2022-12-07T09:45:51;4.40;99.90
59146;DHT22;44928;53.074;6.646;2022-12-07T09:48:29;4.50;99.90
59146;DHT22;44928;53.074;6.646;2022-12-07T09:50:57;4.50;99.90
59146;DHT22;44928;53.074;6.646;2022-12-07T09:53:33;4.60;99.90
59146;DHT22;44928;53.074;6.646;2022-12-07T09:56:00;4.60;99.90
59146;DHT22;44928;53.074;6.646;2022-12-07T09:58:28;4.60;99.90
59146;DHT22;44928;53.074;6.646;2022-12-07T10:00:58;4.60;99.90
59146;DHT22;44928;53.074;6.646;2022-12-07T10:03:27;4.60;99.90
59146;DHT22;44928;53.074;6.646;2022-12-07T10:05:54;4.60;99.90
59146;DHT22;44928;53.074;6.646;2022-12-07T10:08:20;4.70;99.90
59146;DHT22;44928;53.074;6.646;2022-12-07T10:10:50;4.70;99.90
59146;DHT22;44928;53.074;6.646;2022-12-07T10:13:43;4.70;99.90
59146;DHT22;44928;53.074;6.646;2022-12-07T10:18:53;4.70;99.90
59146;DHT22;44928;53.074;6.646;2022-12-07T10:21:20;4.70;99.90
59146;DHT22;44928;53.074;6.646;2022-12-07T10:29:20;4.70;99.90
59146;DHT22;44928;53.074;6.646;2022-12-07T10:31:56;4.70;99.90
59146;DHT22;44928;53.074;6.646;2022-12-07T10:34:31;4.70;99.90
59146;DHT22;44928;53.074;6.646;2022-12-07T10:39:46;4.70;99.90
59146;DHT22;44928;53.074;6.646;2022-12-07T10:42:31;4.70;99.90
59146;DHT22;44928;53.074;6.646;2022-12-07T10:53:17;4.90;99.90
59146;DHT22;44928;53.074;6.646;2022-12-07T10:56:11;4.90;99.90
59146;DHT22;44928;53.074;6.646;2022-12-07T11:01:54;5.10;99.90
59146;DHT22;44928;53.074;6.646;2022-12-07T11:10:22;5.20;99.90
59146;DHT22;44928;53.074;6.646;2022-12-07T11:18:26;5.20;99.90
59146;DHT22;44928;53.074;6.646;2022-12-07T11:20:57;5.20;99.90
59146;DHT22;44928;53.074;6.646;2022-12-07T11:26:12;5.20;99.90
59146;DHT22;44928;53.074;6.646;2022-12-07T11:34:44;5.00;99.90
59146;DHT22;44928;53.074;6.646;2022-12-07T11:37:19;4.80;99.90
59146;DHT22;44928;53.074;6.646;2022-12-07T11:39:57;4.70;99.90
59146;DHT22;44928;53.074;6.646;2022-12-07T11:42:42;4.60;99.90
59146;DHT22;44928;53.074;6.646;2022-12-07T11:45:32;4.60;99.90
59146;DHT22;44928;53.074;6.646;2022-12-07T11:48:10;4.60;99.90
59146;DHT22;44928;53.074;6.646;2022-12-07T11:50:45;4.50;99.90
59146;DHT22;44928;53.074;6.646;2022-12-07T11:53:20;4.60;99.90
59146;DHT22;44928;53.074;6.646;2022-12-07T11:56:09;4.60;99.90
59146;DHT22;44928;53.074;6.646;2022-12-07T12:06:40;4.80;99.90
59146;DHT22;44928;53.074;6.646;2022-12-07T12:09:31;4.90;99.90
59146;DHT22;44928;53.074;6.646;2022-12-07T12:17:47;5.20;99.90
59146;DHT22;44928;53.074;6.646;2022-12-07T12:20:49;5.30;99.90
59146;DHT22;44928;53.074;6.646;2022-12-07T12:23:20;5.40;99.90
59146;DHT22;44928;53.074;6.646;2022-12-07T12:25:52;5.40;99.90
59146;DHT22;44928;53.074;6.646;2022-12-07T12:33:50;5.50;99.90
59146;DHT22;44928;53.074;6.646;2022-12-07T12:46:56;5.60;99.90
59146;DHT22;44928;53.074;6.646;2022-12-07T12:54:34;5.60;99.90
59146;DHT22;44928;53.074;6.646;2022-12-07T12:57:12;5.60;99.90
59146;DHT22;44928;53.074;6.646;2022-12-07T13:02:32;5.60;99.90
59146;DHT22;44928;53.074;6.646;2022-12-07T13:15:53;5.70;99.90
59146;DHT22;44928;53.074;6.646;2022-12-07T13:18:35;5.60;99.90
59146;DHT22;44928;53.074;6.646;2022-12-07T13:31:36;5.20;99.90
59146;DHT22;44928;53.074;6.646;2022-12-07T13:34:04;5.10;99.90
59146;DHT22;44928;53.074;6.646;2022-12-07T13:36:34;5.00;99.90
59146;DHT22;44928;53.074;6.646;2022-12-07T13:39:23;5.00;99.90
59146;DHT22;44928;53.074;6.646;2022-12-07T13:41:52;5.00;99.90
59146;DHT22;44928;53.074;6.646;2022-12-07T13:44:18;4.90;99.90
59146;DHT22;44928;53.074;6.646;2022-12-07T13:49:38;4.90;99.90
59146;DHT22;44928;53.074;6.646;2022-12-07T13:52:15;4.80;99.90
59146;DHT22;44928;53.074;6.646;2022-12-07T13:57:24;4.80;99.90
59146;DHT22;44928;53.074;6.646;2022-12-07T13:59:51;4.70;99.90
59146;DHT22;44928;53.074;6.646;2022-12-07T14:04:45;4.70;99.90
59146;DHT22;44928;53.074;6.646;2022-12-07T14:07:28;4.70;99.90
59146;DHT22;44928;53.074;6.646;2022-12-07T14:10:05;4.70;99.90
59146;DHT22;44928;53.074;6.646;2022-12-07T14:12:32;4.60;99.90
59146;DHT22;44928;53.074;6.646;2022-12-07T14:14:59;4.60;99.90
59146;DHT22;44928;53.074;6.646;2022-12-07T14:17:27;4.60;99.90
59146;DHT22;44928;53.074;6.646;2022-12-07T14:19:58;4.60;99.90
59146;DHT22;44928;53.074;6.646;2022-12-07T14:22:36;4.60;99.90
59146;DHT22;44928;53.074;6.646;2022-12-07T14:25:17;4.60;99.90
59146;DHT22;44928;53.074;6.646;2022-12-07T14:27:53;4.50;99.90
59146;DHT22;44928;53.074;6.646;2022-12-07T14:30:21;4.50;99.90
59146;DHT22;44928;53.074;6.646;2022-12-07T14:32:55;4.50;99.90
59146;DHT22;44928;53.074;6.646;2022-12-07T14:35:22;4.50;99.90
59146;DHT22;44928;53.074;6.646;2022-12-07T14:37:49;4.50;99.90
59146;DHT22;44928;53.074;6.646;2022-12-07T14:40:19;4.40;99.90
59146;DHT22;44928;53.074;6.646;2022-12-07T14:42:47;4.40;99.90
59146;DHT22;44928;53.074;6.646;2022-12-07T14:45:16;4.30;99.90
59146;DHT22;44928;53.074;6.646;2022-12-07T14:47:43;4.30;99.90
59146;DHT22;44928;53.074;6.646;2022-12-07T14:50:12;4.30;99.90
59146;DHT22;44928;53.074;6.646;2022-12-07T14:52:39;4.20;99.90
59146;DHT22;44928;53.074;6.646;2022-12-07T14:55:11;4.20;99.90
59146;DHT22;44928;53.074;6.646;2022-12-07T14:57:38;4.20;99.90
59146;DHT22;44928;53.074;6.646;2022-12-07T15:00:04;4.20;99.90
59146;DHT22;44928;53.074;6.646;2022-12-07T15:02:30;4.20;99.90
59146;DHT22;44928;53.074;6.646;2022-12-07T15:04:56;4.30;99.90
59146;DHT22;44928;53.074;6.646;2022-12-07T15:07:21;4.40;99.90
59146;DHT22;44928;53.074;6.646;2022-12-07T15:09:48;4.40;99.90
59146;DHT22;44928;53.074;6.646;2022-12-07T15:12:14;4.30;99.90
59146;DHT22;44928;53.074;6.646;2022-12-07T15:14:40;4.40;99.90
59146;DHT22;44928;53.074;6.646;2022-12-07T15:17:07;4.30;99.90
59146;DHT22;44928;53.074;6.646;2022-12-07T15:19:35;4.30;99.90
59146;DHT22;44928;53.074;6.646;2022-12-07T15:22:00;4.20;99.90
59146;DHT22;44928;53.074;6.646;2022-12-07T15:24:27;4.20;99.90
59146;DHT22;44928;53.074;6.646;2022-12-07T15:26:53;4.20;99.90
59146;DHT22;44928;53.074;6.646;2022-12-07T15:29:19;4.10;99.90
59146;DHT22;44928;53.074;6.646;2022-12-07T15:31:45;4.10;99.90
59146;DHT22;44928;53.074;6.646;2022-12-07T15:34:11;4.10;99.90
59146;DHT22;44928;53.074;6.646;2022-12-07T15:36:37;4.10;99.90
59146;DHT22;44928;53.074;6.646;2022-12-07T15:39:03;4.00;99.90
59146;DHT22;44928;53.074;6.646;2022-12-07T15:41:29;4.00;99.90
59146;DHT22;44928;53.074;6.646;2022-12-07T15:43:54;4.00;99.90
59146;DHT22;44928;53.074;6.646;2022-12-07T15:46:40;4.00;99.90
59146;DHT22;44928;53.074;6.646;2022-12-07T15:49:13;3.90;99.90
59146;DHT22;44928;53.074;6.646;2022-12-07T15:51:39;3.90;99.90
59146;DHT22;44928;53.074;6.646;2022-12-07T15:54:05;3.80;99.90
59146;DHT22;44928;53.074;6.646;2022-12-07T15:56:31;3.70;99.90
59146;DHT22;44928;53.074;6.646;2022-12-07T15:58:57;3.70;99.90
59146;DHT22;44928;53.074;6.646;2022-12-07T16:01:23;3.70;99.90
59146;DHT22;44928;53.074;6.646;2022-12-07T16:03:49;3.70;99.90
59146;DHT22;44928;53.074;6.646;2022-12-07T16:06:18;3.60;99.90
59146;DHT22;44928;53.074;6.646;2022-12-07T16:08:45;3.60;99.90
59146;DHT22;44928;53.074;6.646;2022-12-07T16:11:12;3.60;99.90
59146;DHT22;44928;53.074;6.646;2022-12-07T16:13:38;3.60;99.90
59146;DHT22;44928;53.074;6.646;2022-12-07T16:16:07;3.60;99.90
59146;DHT22;44928;53.074;6.646;2022-12-07T16:18:33;3.50;99.90
59146;DHT22;44928;53.074;6.646;2022-12-07T16:20:59;3.50;99.90
59146;DHT22;44928;53.074;6.646;2022-12-07T16:23:26;3.50;99.90
59146;DHT22;44928;53.074;6.646;2022-12-07T16:25:51;3.50;99.90
59146;DHT22;44928;53.074;6.646;2022-12-07T16:28:17;3.50;99.90
59146;DHT22;44928;53.074;6.646;2022-12-07T16:30:43;3.50;99.90
59146;DHT22;44928;53.074;6.646;2022-12-07T16:33:10;3.50;99.90
59146;DHT22;44928;53.074;6.646;2022-12-07T16:35:38;3.50;99.90
59146;DHT22;44928;53.074;6.646;2022-12-07T16:38:06;3.50;99.90
59146;DHT22;44928;53.074;6.646;2022-12-07T16:40:32;3.50;99.90
59146;DHT22;44928;53.074;6.646;2022-12-07T16:42:58;3.60;99.90
59146;DHT22;44928;53.074;6.646;2022-12-07T16:45:24;3.60;99.90
59146;DHT22;44928;53.074;6.646;2022-12-07T16:47:50;3.60;99.90
59146;DHT22;44928;53.074;6.646;2022-12-07T16:50:15;3.70;99.90
59146;DHT22;44928;53.074;6.646;2022-12-07T16:52:41;3.70;99.90
59146;DHT22;44928;53.074;6.646;2022-12-07T16:55:07;3.70;99.90
59146;DHT22;44928;53.074;6.646;2022-12-07T16:57:33;3.70;99.90
59146;DHT22;44928;53.074;6.646;2022-12-07T16:59:59;3.70;99.90
59146;DHT22;44928;53.074;6.646;2022-12-07T17:02:25;3.70;99.90
59146;DHT22;44928;53.074;6.646;2022-12-07T17:04:51;3.70;99.90
59146;DHT22;44928;53.074;6.646;2022-12-07T17:07:17;3.80;99.90
59146;DHT22;44928;53.074;6.646;2022-12-07T17:09:42;3.80;99.90
59146;DHT22;44928;53.074;6.646;2022-12-07T17:12:08;3.80;99.90
59146;DHT22;44928;53.074;6.646;2022-12-07T17:14:35;3.80;99.90
59146;DHT22;44928;53.074;6.646;2022-12-07T17:17:19;3.80;99.90
59146;DHT22;44928;53.074;6.646;2022-12-07T17:19:44;3.80;99.90
59146;DHT22;44928;53.074;6.646;2022-12-07T17:22:10;3.80;99.90
59146;DHT22;44928;53.074;6.646;2022-12-07T17:24:38;3.80;99.90
59146;DHT22;44928;53.074;6.646;2022-12-07T17:27:04;3.70;99.90
59146;DHT22;44928;53.074;6.646;2022-12-07T17:29:30;3.70;99.90
59146;DHT22;44928;53.074;6.646;2022-12-07T17:31:56;3.70;99.90
59146;DHT22;44928;53.074;6.646;2022-12-07T17:34:21;3.60;99.90
59146;DHT22;44928;53.074;6.646;2022-12-07T17:36:47;3.60;99.90
59146;DHT22;44928;53.074;6.646;2022-12-07T17:39:17;3.60;99.90
59146;DHT22;44928;53.074;6.646;2022-12-07T17:41:43;3.60;99.90
59146;DHT22;44928;53.074;6.646;2022-12-07T17:44:28;3.60;99.90
59146;DHT22;44928;53.074;6.646;2022-12-07T17:46:54;3.60;99.90
59146;DHT22;44928;53.074;6.646;2022-12-07T17:49:24;3.60;99.90
59146;DHT22;44928;53.074;6.646;2022-12-07T17:51:50;3.50;99.90
59146;DHT22;44928;53.074;6.646;2022-12-07T17:54:35;3.50;99.90
59146;DHT22;44928;53.074;6.646;2022-12-07T17:57:01;3.60;99.90
59146;DHT22;44928;53.074;6.646;2022-12-07T17:59:26;3.60;99.90
59146;DHT22;44928;53.074;6.646;2022-12-07T18:01:52;3.60;99.90
59146;DHT22;44928;53.074;6.646;2022-12-07T18:04:18;3.60;99.90
59146;DHT22;44928;53.074;6.646;2022-12-07T18:06:44;3.60;99.90
59146;DHT22;44928;53.074;6.646;2022-12-07T18:09:10;3.60;99.90